Station: Biloela

  Atmospheric Gas Attenuation - ITU Rec 676-11   --------------- db/100km ---------------
Date Time Temp RH % AH g/m3 Dew Point Wind Direction Speed kph Gust kph Barometer mB Rainfall Since 9am 24GHz 47GHz 76GHz 122GHz 134GHz 241GHz
27 01:40 21.2 84 15.57 18.4 0 0 1009 0 34.0 35.2 64.6 170.6 182.5 633.1
27 01:30 21.6 83 15.74 18.6 4 7 1009 0 34.4 35.3 65.0 171.7 184.0 638.5
27 01:20 21.8 83 15.92 18.8 0 0 1009.1 0 34.7 35.6 65.6 173.5 186.2 646.2
27 01:10 22.3 83 16.39 19.3 6 7 1009.1 0 35.7 36.2 67.4 178.0 192.0 666.3
27 01:00 22 83 16.11 19 6 7 1009.1 0 35.1 35.8 66.3 175.3 188.6 654.3
27 00:50 22.6 81 16.27 19.2 6 7 1009.3 0 35.4 35.9 66.6 175.9 189.5 657.6
27 00:40 22.5 81 16.18 19.1 7 9 1009.3 0 35.2 35.7 66.2 175.1 188.4 653.8
27 00:30 22.3 81 15.99 18.9 7 11 1009.4 0 34.8 35.5 65.5 173.2 186.1 645.7
27 00:20 22.4 82 16.28 19.2 7 7 1009.5 0 35.4 36.0 66.8 176.5 190.2 659.9
27 00:10 22.2 81 15.9 18.8 7 9 1009.5 0 34.6 35.4 65.2 172.4 185.0 642.0
27 00:00 22.6 79 15.87 18.8 7 9 1009.6 0 34.5 35.2 64.8 171.1 183.6 637.1
26 23:50 22.9 79 16.14 19.1 7 7 1009.7 0 35.1 35.5 65.7 173.7 186.9 648.5
26 23:40 22.9 77 15.74 18.7 7 9 1009.9 0 34.2 34.8 63.9 169.0 181.0 628.2
26 23:30 23.1 76 15.71 18.6 7 9 1010 0 34.2 34.7 63.7 168.2 180.1 625.0
26 23:20 23.4 75 15.77 18.7 7 9 1010.1 0 34.3 34.7 63.7 168.3 180.3 625.7
26 23:10 23.6 74 15.74 18.7 9 9 1010.2 0 34.2 34.5 63.4 167.5 179.4 622.6
26 23:00 23.8 73 15.7 18.7 11 13 1010.3 0 34.1 34.4 63.0 166.6 178.4 619.0
26 22:50 24 72 15.66 18.6 11 13 1010.3 0 34.0 34.2 62.7 165.7 177.3 615.4
26 22:40 24.4 70 15.58 18.6 9 11 1010.2 0 33.8 33.9 62.0 163.9 175.2 608.2
26 22:30 24.7 69 15.62 18.6 9 13 1010.2 0 33.8 33.9 62.0 163.7 175.1 607.8
26 22:20 24.7 68 15.39 18.4 11 13 1010.2 0 33.3 33.5 61.0 161.1 171.9 596.5
26 22:10 24.8 68 15.48 18.5 11 13 1010.2 0 33.5 33.6 61.3 161.9 172.9 600.1
26 22:00 25.1 68 15.74 18.8 11 17 1010.3 0 34.1 33.9 62.2 164.3 175.9 610.6
26 21:50 25.2 68 15.83 18.9 9 11 1010.3 0 34.2 34.1 62.5 165.1 176.9 614.2
26 21:40 25.3 67 15.69 18.7 6 7 1010.1 0 33.9 33.8 61.8 163.2 174.7 606.5
26 21:30 25.4 67 15.77 18.8 6 11 1010.1 0 34.1 33.9 62.0 164.0 175.6 609.6
26 21:20 25.8 65 15.65 18.7 9 9 1010.1 0 33.8 33.5 61.2 161.7 173.0 600.6
26 21:10 25.9 65 15.74 18.8 11 11 1010.1 0 34.0 33.6 61.5 162.6 174.0 604.2
26 21:00 25.9 64 15.49 18.6 11 17 1010.1 0 33.5 33.2 60.5 159.7 170.6 592.1
26 20:50 26.1 64 15.67 18.8 11 17 1010 0 33.8 33.4 61.1 161.3 172.6 599.2
26 20:40 26.2 63 15.51 18.6 13 17 1009.8 0 33.5 33.1 60.3 159.3 170.1 590.6
26 20:30 26.1 63 15.42 18.5 11 19 1009.7 0 33.3 33.0 60.0 158.5 169.1 587.0
26 20:20 26.2 61 15.02 18.3 13 17 1009.6 0 32.4 32.3 58.2 153.8 163.4 567.1
26 20:10 26.4 60 14.94 18 7 9 1009.4 0 32.3 32.1 57.7 152.5 161.8 561.8
26 20:00 26.7 59 14.93 18 11 19 1009.3 0 32.2 31.9 57.5 151.8 161.1 559.1
26 19:50 26.7 59 14.93 18 7 9 1009.1 0 32.2 31.9 57.5 151.8 161.0 559.0
26 19:40 27 59 15.19 18.3 15 19 1008.9 0 32.7 32.2 58.3 154.0 163.9 569.0
26 19:30 27.1 58 15.01 18.1 22 32 1008.6 0 32.4 31.9 57.5 151.8 161.2 559.7
26 19:20 27.2 58 15.09 18.2 20 26 1008.4 0 32.5 32.0 57.7 152.5 162.1 562.7
26 19:10 27.5 57 15.08 18.2 24 30 1008.2 0 32.5 31.8 57.4 151.7 161.3 560.0
26 19:00 27.8 56 15.06 18.2 19 26 1008.1 0 32.4 31.7 57.1 150.9 160.4 556.9
26 18:50 28 55 14.96 18.1 20 22 1008 0 32.2 31.4 56.6 149.5 158.6 550.8
26 18:40 28.3 55 15.21 18.4 19 22 1007.9 0 32.7 31.7 57.4 151.6 161.3 560.2
26 18:30 28.4 54 15.01 18.2 17 24 1007.8 0 32.3 31.4 56.5 149.2 158.4 550.2
26 18:20 28.7 53 14.98 18.2 17 20 1007.7 0 32.2 31.2 56.1 148.3 157.4 546.7
26 18:10 29 51 14.65 18.1 17 22 1007.5 0 31.5 30.6 54.6 144.2 152.5 529.5
26 18:00 29.3 50 14.6 17.8 20 30 1007.3 0 31.3 30.4 54.2 143.1 151.3 525.2
26 17:50 29.7 48 14.32 17.5 26 35 1007 0 30.7 29.8 52.8 139.5 146.9 510.0
26 17:40 30.8 45 14.25 17.8 19 24 1006.8 0 30.5 29.3 51.8 136.8 143.9 499.8
26 17:30 31.3 44 14.31 17.6 19 30 1006.6 0 30.6 29.2 51.7 136.6 143.7 499.2
26 17:20 31.7 43 14.29 17.9 19 26 1006.5 0 30.5 29.1 51.4 135.7 142.8 495.8
26 17:10 31.9 42 14.11 17.4 26 32 1006.4 0 30.1 28.7 50.6 133.5 140.2 486.8
26 17:00 32.7 39 13.67 17.3 19 28 1006.2 0 29.2 27.8 48.4 127.9 133.4 463.4
26 16:50 32.6 39 13.6 17.2 19 22 1006.2 0 29.0 27.7 48.2 127.3 132.8 461.1
26 16:40 32.9 41 14.52 17.9 15 17 1006.2 0 30.9 29.0 51.4 135.9 143.4 498.1
26 16:30 31.8 39 13.03 16.5 17 24 1006 0 27.9 27.1 46.6 123.0 127.3 441.8
26 16:20 32.3 39 13.38 16.6 17 20 1006 0 28.6 27.5 47.6 125.7 130.6 453.5
26 16:10 33.2 35 12.6 16.1 22 26 1006 0 26.9 26.1 44.3 116.9 120.1 416.8
26 16:00 35 31 12.26 15.8 13 22 1005.9 0 26.1 25.1 42.2 111.3 113.6 394.3
26 15:50 33.6 34 12.5 15.6 13 13 1006 0 26.7 25.8 43.7 115.4 118.3 410.7
26 15:40 33.9 33 12.32 15.4 11 13 1006 0 26.3 25.5 43.0 113.3 115.9 402.1
26 15:30 34.4 30 11.5 14.8 15 22 1006 0 24.6 24.2 39.9 105.2 106.1 367.8
26 15:20 33.5 32 11.7 15 13 20 1006.1 0 25.1 24.8 41.1 108.2 109.5 379.6
26 15:10 34.6 32 12.4 15.5 17 20 1006.1 0 26.4 25.4 42.9 113.1 115.8 401.8
26 15:00 33.1 33 11.81 14.7 15 24 1006.1 0 25.3 25.0 41.6 109.7 111.2 385.8
26 14:50 33.8 32 11.89 14.8 11 13 1006.2 0 25.4 24.9 41.6 109.5 111.2 385.7
26 14:40 33.3 32 11.58 14.8 7 9 1006.4 0 24.8 24.7 40.8 107.4 108.4 376.0
26 14:30 33.8 33 12.26 15.7 9 17 1006.5 0 26.2 25.5 42.8 113.0 115.4 400.3
26 14:20 33.4 32 11.64 14.9 9 11 1006.6 0 24.9 24.7 40.9 107.8 109.0 377.9
26 14:10 33.9 33 12.32 15.8 15 19 1006.6 0 26.3 25.5 43.0 113.4 115.9 402.3
26 14:00 33.3 34 12.3 15.3 11 22 1006.8 0 26.3 25.7 43.2 114.0 116.6 404.5
26 13:50 34.3 34 12.97 16.2 7 9 1006.9 0 27.6 26.3 45.0 118.9 122.8 426.2
26 13:40 33.8 35 13 16.2 15 17 1006.9 0 27.7 26.5 45.4 119.9 123.9 430.1
26 13:30 33.5 34 12.43 15.5 11 20 1007 0 26.6 25.8 43.6 115.0 117.8 408.7
26 13:20 33.4 34 12.37 15.4 17 20 1007.1 0 26.4 25.8 43.5 114.6 117.3 406.9
26 13:10 32.7 34 11.92 15.2 11 17 1007.3 0 25.6 25.3 42.3 111.4 113.2 392.4
26 13:00 32.9 35 12.4 15.8 11 20 1007.4 0 26.5 26.0 43.8 115.6 118.4 410.7
26 12:50 33.3 36 13.02 16.2 11 15 1007.5 0 27.8 26.7 45.8 120.9 124.9 433.7
26 12:40 33.1 35 12.53 15.6 9 13 1007.6 0 26.8 26.1 44.2 116.6 119.6 415.0
26 12:30 33 33 11.75 15 9 19 1007.8 0 25.2 25.0 41.6 109.5 110.9 384.4
26 12:20 32.5 35 12.14 15.1 6 9 1007.8 0 26.0 25.7 43.2 113.8 116.0 402.4
26 12:10 32.6 34 11.85 15.1 13 15 1007.9 0 25.4 25.3 42.1 111.0 112.6 390.3
26 12:00 32.8 36 12.69 15.8 9 20 1008.1 0 27.1 26.4 44.9 118.5 121.9 423.1
26 11:50 31.7 37 12.3 15.6 4 6 1008.3 0 26.4 26.2 44.2 116.5 119.1 413.0
26 11:40 31.4 39 12.75 15.8 9 13 1008.4 0 27.3 26.9 46.0 121.2 124.8 433.1
26 11:30 31.3 38 12.36 15.3 11 17 1008.6 0 26.5 26.4 44.6 117.6 120.4 417.6
26 11:20 31.8 37 12.36 15.7 15 17 1008.7 0 26.5 26.3 44.3 116.9 119.7 415.1
26 11:10 31.8 38 12.7 16.1 9 9 1008.9 0 27.2 26.8 45.6 120.2 123.7 429.1
26 11:00 32.2 42 14.34 17.7 7 17 1009 0 30.6 29.1 51.4 135.6 142.7 495.8
26 10:50 31 42 13.44 16.6 9 13 1009.1 0 28.8 28.1 48.8 128.7 133.8 464.6
26 10:40 31.6 43 14.21 17.5 13 15 1009.2 0 30.3 29.1 51.3 135.4 142.2 494.0
26 10:30 30.8 43 13.62 17.1 11 20 1009.5 0 29.2 28.4 49.6 130.8 136.4 473.6
26 10:20 30.4 44 13.64 16.8 9 13 1009.6 0 29.2 28.6 49.9 131.7 137.4 476.9
26 10:10 30 45 13.65 16.8 15 17 1009.7 0 29.3 28.8 50.2 132.4 138.2 479.7
26 10:00 29.7 48 14.32 17.5 13 19 1009.9 0 30.7 29.9 53.0 139.8 147.2 511.1
26 09:50 30.4 49 15.19 18.5 13 17 1009.9 0 32.5 31.0 55.9 147.6 157.0 545.3
26 09:40 28.9 49 14 17.4 11 13 1010 0 30.1 29.7 52.2 137.9 144.6 502.0
26 09:30 28.7 56 15.83 19.1 9 17 1010 0 33.9 32.7 59.7 157.8 169.0 587.0
26 09:20 28.5 56 15.65 19.1 7 9 1009.9 0 33.6 32.5 59.1 156.2 167.0 580.0
26 09:10 28 60 16.32 19.5 6 13 1010.1 0 35.0 33.8 62.3 164.7 177.3 615.7

Last Refresh: 27-Feb-2021 02:24:48

Most of the information presented on this site is sourced from the Bureau of Meteorology.  Copyright in all material sourced from the Bureau of Meteorology resides with the Commonwealth of Australia.